sensor_id;sensor_type;location;lat;lon;timestamp;pressure;altitude;pressure_sealevel;temperature;humidity
84028;BME280;74111;45.650;25.612;2023-11-21T00:00:38;94542.88;;;6.54;77.31
84028;BME280;74111;45.650;25.612;2023-11-21T00:03:26;94542.98;;;6.58;77.05
84028;BME280;74111;45.650;25.612;2023-11-21T00:05:56;94547.73;;;6.59;76.56
84028;BME280;74111;45.650;25.612;2023-11-21T00:08:24;94548.19;;;6.60;76.42
84028;BME280;74111;45.650;25.612;2023-11-21T00:10:52;94549.15;;;6.62;76.35
84028;BME280;74111;45.650;25.612;2023-11-21T00:13:20;94551.03;;;6.65;76.68
84028;BME280;74111;45.650;25.612;2023-11-21T00:15:48;94554.89;;;6.65;76.46
84028;BME280;74111;45.650;25.612;2023-11-21T00:18:17;94549.27;;;6.67;76.73
84028;BME280;74111;45.650;25.612;2023-11-21T00:20:45;94553.13;;;6.69;76.62
84028;BME280;74111;45.650;25.612;2023-11-21T00:23:14;94549.81;;;6.72;76.48
84028;BME280;74111;45.650;25.612;2023-11-21T00:25:42;94552.68;;;6.74;76.42
84028;BME280;74111;45.650;25.612;2023-11-21T00:28:10;94553.20;;;6.75;76.18
84028;BME280;74111;45.650;25.612;2023-11-21T00:30:38;94552.75;;;6.78;76.01
84028;BME280;74111;45.650;25.612;2023-11-21T00:33:07;94560.05;;;6.78;75.98
84028;BME280;74111;45.650;25.612;2023-11-21T00:35:35;94562.95;;;6.78;75.97
84028;BME280;74111;45.650;25.612;2023-11-21T00:38:03;94563.20;;;6.83;75.89
84028;BME280;74111;45.650;25.612;2023-11-21T00:40:33;94562.66;;;6.84;75.99
84028;BME280;74111;45.650;25.612;2023-11-21T00:43:01;94560.17;;;6.85;75.83
84028;BME280;74111;45.650;25.612;2023-11-21T00:45:33;94561.56;;;6.83;76.14
84028;BME280;74111;45.650;25.612;2023-11-21T00:48:01;94562.06;;;6.81;76.09
84028;BME280;74111;45.650;25.612;2023-11-21T00:50:29;94562.48;;;6.78;76.55
84028;BME280;74111;45.650;25.612;2023-11-21T00:52:58;94564.83;;;6.75;76.74
84028;BME280;74111;45.650;25.612;2023-11-21T00:55:26;94566.95;;;6.78;76.64
84028;BME280;74111;45.650;25.612;2023-11-21T00:57:56;94572.41;;;6.80;76.11
84028;BME280;74111;45.650;25.612;2023-11-21T01:00:24;94566.75;;;6.80;76.21
84028;BME280;74111;45.650;25.612;2023-11-21T01:02:53;94564.09;;;6.81;75.91
84028;BME280;74111;45.650;25.612;2023-11-21T01:05:21;94563.89;;;6.83;76.08
84028;BME280;74111;45.650;25.612;2023-11-21T01:07:49;94563.46;;;6.83;75.94
84028;BME280;74111;45.650;25.612;2023-11-21T01:10:18;94560.75;;;6.84;75.78
84028;BME280;74111;45.650;25.612;2023-11-21T01:12:46;94560.25;;;6.81;75.83
84028;BME280;74111;45.650;25.612;2023-11-21T01:15:14;94558.02;;;6.82;75.59
84028;BME280;74111;45.650;25.612;2023-11-21T01:17:43;94562.38;;;6.81;75.87
84028;BME280;74111;45.650;25.612;2023-11-21T01:20:11;94557.64;;;6.83;75.95
84028;BME280;74111;45.650;25.612;2023-11-21T01:22:42;94550.35;;;6.86;75.81
84028;BME280;74111;45.650;25.612;2023-11-21T01:25:11;94546.55;;;6.89;75.99
84028;BME280;74111;45.650;25.612;2023-11-21T01:27:39;94545.58;;;6.91;75.84
84028;BME280;74111;45.650;25.612;2023-11-21T01:30:07;94540.79;;;6.92;75.63
84028;BME280;74111;45.650;25.612;2023-11-21T01:32:38;94537.91;;;6.93;75.41
84028;BME280;74111;45.650;25.612;2023-11-21T01:35:08;94538.60;;;6.89;75.38
84028;BME280;74111;45.650;25.612;2023-11-21T01:37:38;94538.89;;;6.92;75.48
84028;BME280;74111;45.650;25.612;2023-11-21T01:40:07;94531.55;;;6.93;75.37
84028;BME280;74111;45.650;25.612;2023-11-21T01:42:38;94527.45;;;6.94;75.45
84028;BME280;74111;45.650;25.612;2023-11-21T01:45:07;94523.66;;;6.96;75.07
84028;BME280;74111;45.650;25.612;2023-11-21T01:47:36;94522.41;;;6.96;75.14
84028;BME280;74111;45.650;25.612;2023-11-21T01:50:06;94521.31;;;6.95;74.83
84028;BME280;74111;45.650;25.612;2023-11-21T01:52:35;94524.38;;;6.95;74.80
84028;BME280;74111;45.650;25.612;2023-11-21T01:55:05;94517.91;;;6.96;74.60
84028;BME280;74111;45.650;25.612;2023-11-21T01:57:35;94520.23;;;6.96;74.29
84028;BME280;74111;45.650;25.612;2023-11-21T02:00:06;94520.71;;;6.99;74.35
84028;BME280;74111;45.650;25.612;2023-11-21T02:02:44;94517.76;;;7.02;74.45
84028;BME280;74111;45.650;25.612;2023-11-21T02:05:15;94517.64;;;7.04;74.50
84028;BME280;74111;45.650;25.612;2023-11-21T02:07:45;94515.73;;;7.03;74.59
84028;BME280;74111;45.650;25.612;2023-11-21T02:10:17;94519.14;;;7.02;74.92
84028;BME280;74111;45.650;25.612;2023-11-21T02:12:47;94521.62;;;6.98;74.50
84028;BME280;74111;45.650;25.612;2023-11-21T02:15:16;94527.05;;;6.97;74.27
84028;BME280;74111;45.650;25.612;2023-11-21T02:17:50;94521.20;;;6.98;74.41
84028;BME280;74111;45.650;25.612;2023-11-21T02:20:22;94509.92;;;6.98;74.29
84028;BME280;74111;45.650;25.612;2023-11-21T02:22:55;94504.28;;;7.00;74.35
84028;BME280;74111;45.650;25.612;2023-11-21T02:25:29;94505.45;;;6.99;74.09
84028;BME280;74111;45.650;25.612;2023-11-21T02:27:59;94505.79;;;6.92;73.79
84028;BME280;74111;45.650;25.612;2023-11-21T02:30:29;94503.85;;;6.91;73.97
84028;BME280;74111;45.650;25.612;2023-11-21T02:33:00;94505.09;;;6.88;73.53
84028;BME280;74111;45.650;25.612;2023-11-21T02:35:29;94501.17;;;6.91;73.97
84028;BME280;74111;45.650;25.612;2023-11-21T02:38:00;94501.27;;;6.93;74.24
84028;BME280;74111;45.650;25.612;2023-11-21T02:40:29;94497.44;;;6.91;73.96
84028;BME280;74111;45.650;25.612;2023-11-21T02:42:58;94491.85;;;6.89;73.78
84028;BME280;74111;45.650;25.612;2023-11-21T02:45:27;94492.13;;;6.89;73.39
84028;BME280;74111;45.650;25.612;2023-11-21T02:47:56;94491.21;;;6.90;73.29
84028;BME280;74111;45.650;25.612;2023-11-21T02:50:26;94490.79;;;6.90;73.02
84028;BME280;74111;45.650;25.612;2023-11-21T02:52:55;94486.93;;;6.89;72.74
84028;BME280;74111;45.650;25.612;2023-11-21T02:55:26;94480.63;;;6.90;72.73
84028;BME280;74111;45.650;25.612;2023-11-21T02:57:55;94485.52;;;6.92;72.61
84028;BME280;74111;45.650;25.612;2023-11-21T03:00:25;94487.38;;;6.95;72.97
84028;BME280;74111;45.650;25.612;2023-11-21T03:02:55;94489.16;;;6.96;72.57
84028;BME280;74111;45.650;25.612;2023-11-21T03:05:26;94490.29;;;6.95;71.54
84028;BME280;74111;45.650;25.612;2023-11-21T03:07:54;94488.69;;;6.96;72.05
84028;BME280;74111;45.650;25.612;2023-11-21T03:10:23;94491.55;;;6.92;71.17
84028;BME280;74111;45.650;25.612;2023-11-21T03:12:51;94496.80;;;6.91;71.69
84028;BME280;74111;45.650;25.612;2023-11-21T03:15:20;94496.69;;;6.88;71.79
84028;BME280;74111;45.650;25.612;2023-11-21T03:17:48;94497.89;;;6.89;71.98
84028;BME280;74111;45.650;25.612;2023-11-21T03:20:17;94495.26;;;6.92;72.02
84028;BME280;74111;45.650;25.612;2023-11-21T03:22:45;94497.11;;;6.95;72.34
84028;BME280;74111;45.650;25.612;2023-11-21T03:25:13;94495.46;;;6.95;72.13
84028;BME280;74111;45.650;25.612;2023-11-21T03:27:42;94498.17;;;6.94;71.40
84028;BME280;74111;45.650;25.612;2023-11-21T03:30:12;94501.29;;;6.94;70.92
84028;BME280;74111;45.650;25.612;2023-11-21T03:32:40;94505.36;;;6.96;71.90
84028;BME280;74111;45.650;25.612;2023-11-21T03:35:08;94503.18;;;6.97;72.44
84028;BME280;74111;45.650;25.612;2023-11-21T03:37:37;94506.92;;;6.93;72.56
84028;BME280;74111;45.650;25.612;2023-11-21T03:40:09;94511.55;;;6.89;72.71
84028;BME280;74111;45.650;25.612;2023-11-21T03:42:37;94511.66;;;6.83;72.93
84028;BME280;74111;45.650;25.612;2023-11-21T03:45:06;94507.58;;;6.76;73.26
84028;BME280;74111;45.650;25.612;2023-11-21T03:47:34;94507.61;;;6.70;73.26
84028;BME280;74111;45.650;25.612;2023-11-21T03:50:03;94513.41;;;6.67;73.00
84028;BME280;74111;45.650;25.612;2023-11-21T03:52:31;94512.10;;;6.67;72.84
84028;BME280;74111;45.650;25.612;2023-11-21T03:55:00;94513.57;;;6.68;72.38
84028;BME280;74111;45.650;25.612;2023-11-21T03:57:28;94514.41;;;6.68;72.29
84028;BME280;74111;45.650;25.612;2023-11-21T03:59:58;94510.51;;;6.67;71.96
84028;BME280;74111;45.650;25.612;2023-11-21T04:02:26;94512.60;;;6.65;71.94
84028;BME280;74111;45.650;25.612;2023-11-21T04:04:56;94510.02;;;6.60;71.97
84028;BME280;74111;45.650;25.612;2023-11-21T04:07:24;94514.98;;;6.59;72.25
84028;BME280;74111;45.650;25.612;2023-11-21T04:09:52;94513.39;;;6.60;72.37
84028;BME280;74111;45.650;25.612;2023-11-21T04:12:21;94514.03;;;6.62;72.62
84028;BME280;74111;45.650;25.612;2023-11-21T04:14:49;94512.66;;;6.58;72.27
84028;BME280;74111;45.650;25.612;2023-11-21T04:17:20;94517.36;;;6.54;72.06
84028;BME280;74111;45.650;25.612;2023-11-21T04:19:48;94517.23;;;6.52;72.07
84028;BME280;74111;45.650;25.612;2023-11-21T04:22:16;94518.61;;;6.48;71.78
84028;BME280;74111;45.650;25.612;2023-11-21T04:24:45;94512.76;;;6.51;72.26
84028;BME280;74111;45.650;25.612;2023-11-21T04:27:13;94518.19;;;6.52;72.58
84028;BME280;74111;45.650;25.612;2023-11-21T04:29:42;94517.03;;;6.51;72.22
84028;BME280;74111;45.650;25.612;2023-11-21T04:32:10;94517.98;;;6.51;72.20
84028;BME280;74111;45.650;25.612;2023-11-21T04:34:38;94516.20;;;6.51;72.48
84028;BME280;74111;45.650;25.612;2023-11-21T04:37:06;94517.97;;;6.49;72.06
84028;BME280;74111;45.650;25.612;2023-11-21T04:39:34;94522.30;;;6.50;71.85
84028;BME280;74111;45.650;25.612;2023-11-21T04:42:03;94522.16;;;6.51;71.95
84028;BME280;74111;45.650;25.612;2023-11-21T04:44:31;94515.02;;;6.52;72.08
84028;BME280;74111;45.650;25.612;2023-11-21T04:46:59;94512.33;;;6.55;72.43
84028;BME280;74111;45.650;25.612;2023-11-21T04:49:27;94511.75;;;6.58;72.18
84028;BME280;74111;45.650;25.612;2023-11-21T04:51:55;94509.94;;;6.60;72.03
84028;BME280;74111;45.650;25.612;2023-11-21T04:54:23;94510.70;;;6.59;71.54
84028;BME280;74111;45.650;25.612;2023-11-21T04:56:55;94505.18;;;6.55;71.33
84028;BME280;74111;45.650;25.612;2023-11-21T04:59:23;94512.33;;;6.51;71.35
84028;BME280;74111;45.650;25.612;2023-11-21T05:01:54;94507.88;;;6.51;71.41
84028;BME280;74111;45.650;25.612;2023-11-21T05:04:23;94507.16;;;6.54;71.02
84028;BME280;74111;45.650;25.612;2023-11-21T05:06:51;94508.55;;;6.56;70.62
84028;BME280;74111;45.650;25.612;2023-11-21T05:09:19;94505.83;;;6.58;71.17
84028;BME280;74111;45.650;25.612;2023-11-21T05:11:47;94505.55;;;6.60;71.10
84028;BME280;74111;45.650;25.612;2023-11-21T05:14:15;94502.58;;;6.60;70.88
84028;BME280;74111;45.650;25.612;2023-11-21T05:16:43;94505.75;;;6.59;70.43
84028;BME280;74111;45.650;25.612;2023-11-21T05:19:12;94508.58;;;6.59;70.62
84028;BME280;74111;45.650;25.612;2023-11-21T05:21:41;94510.84;;;6.59;70.83
84028;BME280;74111;45.650;25.612;2023-11-21T05:24:09;94514.93;;;6.58;71.27
84028;BME280;74111;45.650;25.612;2023-11-21T05:26:37;94517.59;;;6.53;71.34
84028;BME280;74111;45.650;25.612;2023-11-21T05:29:07;94519.20;;;6.48;71.71
84028;BME280;74111;45.650;25.612;2023-11-21T05:31:35;94516.06;;;6.45;71.97
84028;BME280;74111;45.650;25.612;2023-11-21T05:34:04;94516.55;;;6.44;72.15
84028;BME280;74111;45.650;25.612;2023-11-21T05:36:35;94518.59;;;6.43;72.74
84028;BME280;74111;45.650;25.612;2023-11-21T05:39:04;94521.23;;;6.43;73.02
84028;BME280;74111;45.650;25.612;2023-11-21T05:41:32;94524.79;;;6.42;73.23
84028;BME280;74111;45.650;25.612;2023-11-21T05:44:00;94530.00;;;6.40;73.44
84028;BME280;74111;45.650;25.612;2023-11-21T05:46:29;94534.65;;;6.40;73.34
84028;BME280;74111;45.650;25.612;2023-11-21T05:48:57;94534.23;;;6.38;73.17
84028;BME280;74111;45.650;25.612;2023-11-21T05:51:25;94541.82;;;6.37;73.30
84028;BME280;74111;45.650;25.612;2023-11-21T05:53:53;94544.49;;;6.39;73.42
84028;BME280;74111;45.650;25.612;2023-11-21T05:56:21;94548.14;;;6.39;73.36
84028;BME280;74111;45.650;25.612;2023-11-21T05:58:49;94550.12;;;6.42;73.42
84028;BME280;74111;45.650;25.612;2023-11-21T06:01:19;94551.38;;;6.47;73.55
84028;BME280;74111;45.650;25.612;2023-11-21T06:03:47;94560.20;;;6.56;73.82
84028;BME280;74111;45.650;25.612;2023-11-21T06:06:16;94564.48;;;6.64;73.61
84028;BME280;74111;45.650;25.612;2023-11-21T06:08:44;94569.67;;;6.70;73.93
84028;BME280;74111;45.650;25.612;2023-11-21T06:11:12;94567.41;;;6.74;73.51
84028;BME280;74111;45.650;25.612;2023-11-21T06:13:41;94573.09;;;6.76;73.64
84028;BME280;74111;45.650;25.612;2023-11-21T06:16:10;94575.96;;;6.80;73.69
84028;BME280;74111;45.650;25.612;2023-11-21T06:18:38;94577.00;;;6.84;73.34
84028;BME280;74111;45.650;25.612;2023-11-21T06:21:09;94574.02;;;6.86;72.95
84028;BME280;74111;45.650;25.612;2023-11-21T06:23:37;94569.94;;;6.89;72.90
84028;BME280;74111;45.650;25.612;2023-11-21T06:26:05;94572.11;;;6.97;73.29
84028;BME280;74111;45.650;25.612;2023-11-21T06:28:34;94574.42;;;7.05;73.37
84028;BME280;74111;45.650;25.612;2023-11-21T06:31:02;94576.05;;;7.09;73.35
84028;BME280;74111;45.650;25.612;2023-11-21T06:33:33;94578.10;;;7.10;73.23
84028;BME280;74111;45.650;25.612;2023-11-21T06:36:01;94583.02;;;7.17;73.36
84028;BME280;74111;45.650;25.612;2023-11-21T06:38:30;94588.31;;;7.24;73.22
84028;BME280;74111;45.650;25.612;2023-11-21T06:41:00;94592.73;;;7.30;73.32
84028;BME280;74111;45.650;25.612;2023-11-21T06:43:34;94595.90;;;7.34;73.04
84028;BME280;74111;45.650;25.612;2023-11-21T06:46:04;94600.56;;;7.36;72.96
84028;BME280;74111;45.650;25.612;2023-11-21T06:48:32;94599.66;;;7.36;72.71
84028;BME280;74111;45.650;25.612;2023-11-21T06:51:00;94603.13;;;7.39;72.70
84028;BME280;74111;45.650;25.612;2023-11-21T06:53:28;94609.05;;;7.43;72.65
84028;BME280;74111;45.650;25.612;2023-11-21T06:55:56;94611.99;;;7.48;72.87
84028;BME280;74111;45.650;25.612;2023-11-21T06:58:25;94611.33;;;7.53;73.08
84028;BME280;74111;45.650;25.612;2023-11-21T07:00:54;94604.31;;;7.60;73.16
84028;BME280;74111;45.650;25.612;2023-11-21T07:03:23;94602.52;;;7.69;73.10
84028;BME280;74111;45.650;25.612;2023-11-21T07:05:52;94594.34;;;7.75;73.13
84028;BME280;74111;45.650;25.612;2023-11-21T07:08:20;94587.79;;;7.81;73.05
84028;BME280;74111;45.650;25.612;2023-11-21T07:10:48;94583.63;;;7.85;72.65
84028;BME280;74111;45.650;25.612;2023-11-21T07:13:17;94583.77;;;7.88;72.70
84028;BME280;74111;45.650;25.612;2023-11-21T07:15:45;94581.69;;;7.90;72.59
84028;BME280;74111;45.650;25.612;2023-11-21T07:18:13;94580.14;;;7.96;72.43
84028;BME280;74111;45.650;25.612;2023-11-21T07:20:42;94579.02;;;8.04;72.41
84028;BME280;74111;45.650;25.612;2023-11-21T07:23:10;94583.39;;;8.18;72.63
84028;BME280;74111;45.650;25.612;2023-11-21T07:25:38;94586.10;;;8.31;71.97
84028;BME280;74111;45.650;25.612;2023-11-21T07:28:06;94585.63;;;8.43;71.54
84028;BME280;74111;45.650;25.612;2023-11-21T07:30:34;94582.99;;;8.52;70.95
84028;BME280;74111;45.650;25.612;2023-11-21T07:33:02;94585.73;;;8.60;71.10
84028;BME280;74111;45.650;25.612;2023-11-21T07:35:30;94592.92;;;8.70;70.74
84028;BME280;74111;45.650;25.612;2023-11-21T07:37:59;94596.20;;;8.80;70.79
84028;BME280;74111;45.650;25.612;2023-11-21T07:40:27;94601.80;;;8.92;70.20
84028;BME280;74111;45.650;25.612;2023-11-21T07:42:58;94602.06;;;8.99;69.47
84028;BME280;74111;45.650;25.612;2023-11-21T07:45:28;94600.02;;;9.03;69.62
84028;BME280;74111;45.650;25.612;2023-11-21T07:47:57;94600.98;;;9.07;69.20
84028;BME280;74111;45.650;25.612;2023-11-21T07:50:26;94601.79;;;9.11;68.86
84028;BME280;74111;45.650;25.612;2023-11-21T07:52:55;94602.44;;;9.20;69.69
84028;BME280;74111;45.650;25.612;2023-11-21T07:55:24;94599.10;;;9.29;69.54
84028;BME280;74111;45.650;25.612;2023-11-21T07:57:53;94600.64;;;9.38;69.30
84028;BME280;74111;45.650;25.612;2023-11-21T08:00:21;94603.06;;;9.49;68.91
84028;BME280;74111;45.650;25.612;2023-11-21T08:02:49;94605.42;;;9.58;68.42
84028;BME280;74111;45.650;25.612;2023-11-21T08:05:18;94606.30;;;9.67;67.06
84028;BME280;74111;45.650;25.612;2023-11-21T08:07:59;94607.05;;;9.72;65.75
84028;BME280;74111;45.650;25.612;2023-11-21T08:10:27;94614.70;;;9.81;67.27
84028;BME280;74111;45.650;25.612;2023-11-21T08:12:55;94614.34;;;9.90;67.58
84028;BME280;74111;45.650;25.612;2023-11-21T08:15:24;94612.67;;;10.00;66.86
84028;BME280;74111;45.650;25.612;2023-11-21T08:17:52;94614.05;;;10.06;66.19
84028;BME280;74111;45.650;25.612;2023-11-21T08:20:22;94607.10;;;10.13;66.03
84028;BME280;74111;45.650;25.612;2023-11-21T08:22:51;94603.80;;;10.22;65.66
84028;BME280;74111;45.650;25.612;2023-11-21T08:25:24;94604.98;;;10.30;65.16
84028;BME280;74111;45.650;25.612;2023-11-21T08:27:53;94600.09;;;10.35;63.14
84028;BME280;74111;45.650;25.612;2023-11-21T08:30:21;94597.57;;;10.36;64.09
84028;BME280;74111;45.650;25.612;2023-11-21T08:32:52;94597.83;;;10.42;64.52
84028;BME280;74111;45.650;25.612;2023-11-21T08:35:22;94594.25;;;10.46;64.76
84028;BME280;74111;45.650;25.612;2023-11-21T08:37:53;94598.31;;;10.52;64.77
84028;BME280;74111;45.650;25.612;2023-11-21T08:40:21;94595.80;;;10.58;65.11
84028;BME280;74111;45.650;25.612;2023-11-21T08:42:49;94599.13;;;10.65;64.59
84028;BME280;74111;45.650;25.612;2023-11-21T08:45:19;94603.23;;;10.68;63.95
84028;BME280;74111;45.650;25.612;2023-11-21T08:47:48;94606.66;;;10.71;64.00
84028;BME280;74111;45.650;25.612;2023-11-21T08:50:16;94605.35;;;10.76;63.26
84028;BME280;74111;45.650;25.612;2023-11-21T08:52:45;94603.42;;;10.84;63.53
84028;BME280;74111;45.650;25.612;2023-11-21T08:55:14;94597.19;;;10.91;62.94
84028;BME280;74111;45.650;25.612;2023-11-21T08:57:44;94594.09;;;10.94;61.98
84028;BME280;74111;45.650;25.612;2023-11-21T09:00:13;94592.48;;;11.01;62.50
84028;BME280;74111;45.650;25.612;2023-11-21T09:02:44;94592.04;;;11.10;62.49
84028;BME280;74111;45.650;25.612;2023-11-21T09:05:13;94588.77;;;11.17;62.10
84028;BME280;74111;45.650;25.612;2023-11-21T09:07:42;94588.13;;;11.43;62.29
84028;BME280;74111;45.650;25.612;2023-11-21T09:10:10;94584.35;;;11.77;61.54
84028;BME280;74111;45.650;25.612;2023-11-21T09:12:38;94585.60;;;11.98;61.03
84028;BME280;74111;45.650;25.612;2023-11-21T09:15:08;94578.44;;;12.09;60.87
84028;BME280;74111;45.650;25.612;2023-11-21T09:17:37;94575.81;;;12.22;60.58
84028;BME280;74111;45.650;25.612;2023-11-21T09:20:06;94572.92;;;12.39;60.60
84028;BME280;74111;45.650;25.612;2023-11-21T09:22:38;94573.05;;;12.54;59.49
84028;BME280;74111;45.650;25.612;2023-11-21T09:25:07;94576.15;;;12.83;58.47
84028;BME280;74111;45.650;25.612;2023-11-21T09:27:36;94570.02;;;13.16;57.54
84028;BME280;74111;45.650;25.612;2023-11-21T09:30:05;94568.40;;;13.51;56.99
84028;BME280;74111;45.650;25.612;2023-11-21T09:32:33;94564.38;;;13.74;56.29
84028;BME280;74111;45.650;25.612;2023-11-21T09:35:06;94565.72;;;14.07;56.16
84028;BME280;74111;45.650;25.612;2023-11-21T09:37:37;94556.27;;;14.49;54.63
84028;BME280;74111;45.650;25.612;2023-11-21T09:40:09;94552.93;;;14.86;51.73
84028;BME280;74111;45.650;25.612;2023-11-21T09:43:06;94547.71;;;15.14;49.76
84028;BME280;74111;45.650;25.612;2023-11-21T09:45:38;94543.92;;;15.54;51.09
84028;BME280;74111;45.650;25.612;2023-11-21T09:48:09;94542.27;;;15.90;49.76
84028;BME280;74111;45.650;25.612;2023-11-21T09:50:41;94536.09;;;16.22;45.34
84028;BME280;74111;45.650;25.612;2023-11-21T09:53:22;94539.46;;;16.85;46.87
84028;BME280;74111;45.650;25.612;2023-11-21T09:55:53;94543.77;;;18.15;43.61
84028;BME280;74111;45.650;25.612;2023-11-21T09:58:22;94538.52;;;19.52;42.30
84028;BME280;74111;45.650;25.612;2023-11-21T10:00:55;94536.34;;;20.95;40.59
84028;BME280;74111;45.650;25.612;2023-11-21T10:03:26;94541.04;;;22.25;38.12
84028;BME280;74111;45.650;25.612;2023-11-21T10:05:56;94542.03;;;23.43;35.62
84028;BME280;74111;45.650;25.612;2023-11-21T10:08:27;94538.98;;;24.28;31.14
84028;BME280;74111;45.650;25.612;2023-11-21T10:11:14;94534.48;;;25.06;32.43
84028;BME280;74111;45.650;25.612;2023-11-21T10:13:45;94533.64;;;25.99;26.66
84028;BME280;74111;45.650;25.612;2023-11-21T10:16:16;94531.71;;;26.87;27.49
84028;BME280;74111;45.650;25.612;2023-11-21T10:18:52;94528.09;;;27.74;26.48
84028;BME280;74111;45.650;25.612;2023-11-21T10:21:21;94523.17;;;28.46;25.80
84028;BME280;74111;45.650;25.612;2023-11-21T10:23:51;94524.74;;;29.01;25.95
84028;BME280;74111;45.650;25.612;2023-11-21T10:26:22;94520.91;;;29.63;23.59
84028;BME280;74111;45.650;25.612;2023-11-21T10:29:02;94516.11;;;30.31;23.28
84028;BME280;74111;45.650;25.612;2023-11-21T10:31:33;94519.16;;;30.57;21.22
84028;BME280;74111;45.650;25.612;2023-11-21T10:36:44;94519.46;;;31.16;19.94
84028;BME280;74111;45.650;25.612;2023-11-21T10:39:17;94511.02;;;31.57;20.69
84028;BME280;74111;45.650;25.612;2023-11-21T10:41:47;94511.77;;;32.10;20.06
84028;BME280;74111;45.650;25.612;2023-11-21T10:44:18;94513.28;;;32.60;20.44
84028;BME280;74111;45.650;25.612;2023-11-21T10:46:52;94510.26;;;33.21;20.46
84028;BME280;74111;45.650;25.612;2023-11-21T10:49:27;94511.00;;;33.72;18.58
84028;BME280;74111;45.650;25.612;2023-11-21T10:51:56;94510.81;;;34.21;18.33
84028;BME280;74111;45.650;25.612;2023-11-21T10:54:25;94508.78;;;34.04;19.10
84028;BME280;74111;45.650;25.612;2023-11-21T10:56:57;94504.82;;;33.22;16.77
84028;BME280;74111;45.650;25.612;2023-11-21T10:59:30;94502.02;;;31.61;17.14
84028;BME280;74111;45.650;25.612;2023-11-21T11:02:04;94495.08;;;30.08;20.60
84028;BME280;74111;45.650;25.612;2023-11-21T11:04:38;94487.69;;;28.89;21.54
84028;BME280;74111;45.650;25.612;2023-11-21T11:07:11;94484.25;;;27.95;23.70
84028;BME280;74111;45.650;25.612;2023-11-21T11:09:40;94474.47;;;27.19;23.95
84028;BME280;74111;45.650;25.612;2023-11-21T11:12:12;94472.02;;;26.38;24.67
84028;BME280;74111;45.650;25.612;2023-11-21T11:14:42;94468.07;;;25.73;25.30
84028;BME280;74111;45.650;25.612;2023-11-21T11:17:12;94462.46;;;25.37;26.69
84028;BME280;74111;45.650;25.612;2023-11-21T11:19:42;94467.07;;;25.72;25.42
84028;BME280;74111;45.650;25.612;2023-11-21T11:27:54;94461.03;;;27.67;22.26
84028;BME280;74111;45.650;25.612;2023-11-21T11:33:31;94468.36;;;27.59;23.25
84028;BME280;74111;45.650;25.612;2023-11-21T11:37:11;94468.77;;;28.24;22.08
84028;BME280;74111;45.650;25.612;2023-11-21T11:39:30;94466.30;;;28.65;20.72
84028;BME280;74111;45.650;25.612;2023-11-21T11:42:02;94460.77;;;28.64;22.04
84028;BME280;74111;45.650;25.612;2023-11-21T11:47:28;94457.36;;;29.20;19.68
84028;BME280;74111;45.650;25.612;2023-11-21T11:50:17;94455.22;;;29.87;20.19
84028;BME280;74111;45.650;25.612;2023-11-21T11:52:47;94454.73;;;30.37;20.05
84028;BME280;74111;45.650;25.612;2023-11-21T11:55:18;94455.36;;;30.64;19.14
84028;BME280;74111;45.650;25.612;2023-11-21T11:57:51;94457.33;;;30.83;19.60
84028;BME280;74111;45.650;25.612;2023-11-21T12:02:58;94451.70;;;31.00;19.83
84028;BME280;74111;45.650;25.612;2023-11-21T12:05:29;94445.27;;;30.72;19.58
84028;BME280;74111;45.650;25.612;2023-11-21T12:08:05;94447.98;;;30.36;19.79
84028;BME280;74111;45.650;25.612;2023-11-21T12:10:37;94444.20;;;30.02;21.16
84028;BME280;74111;45.650;25.612;2023-11-21T12:13:07;94438.06;;;29.95;20.71
84028;BME280;74111;45.650;25.612;2023-11-21T12:15:36;94439.67;;;30.06;21.00
84028;BME280;74111;45.650;25.612;2023-11-21T12:18:06;94442.11;;;30.12;20.23
84028;BME280;74111;45.650;25.612;2023-11-21T12:20:34;94434.15;;;29.89;19.47
84028;BME280;74111;45.650;25.612;2023-11-21T12:23:07;94430.28;;;29.92;19.72
84028;BME280;74111;45.650;25.612;2023-11-21T12:25:37;94431.34;;;30.22;19.18
84028;BME280;74111;45.650;25.612;2023-11-21T12:28:07;94429.93;;;30.44;17.98
84028;BME280;74111;45.650;25.612;2023-11-21T12:30:36;94427.91;;;30.62;18.87
84028;BME280;74111;45.650;25.612;2023-11-21T12:33:06;94423.48;;;30.59;18.93
84028;BME280;74111;45.650;25.612;2023-11-21T12:35:37;94424.09;;;30.48;19.64
84028;BME280;74111;45.650;25.612;2023-11-21T12:38:05;94417.56;;;30.52;19.08
84028;BME280;74111;45.650;25.612;2023-11-21T12:40:34;94414.25;;;30.60;18.30
84028;BME280;74111;45.650;25.612;2023-11-21T12:43:03;94412.83;;;30.58;18.48
84028;BME280;74111;45.650;25.612;2023-11-21T12:45:33;94413.17;;;30.35;17.21
84028;BME280;74111;45.650;25.612;2023-11-21T12:48:03;94410.56;;;30.19;18.35
84028;BME280;74111;45.650;25.612;2023-11-21T12:50:38;94415.65;;;30.53;18.28
84028;BME280;74111;45.650;25.612;2023-11-21T12:53:08;94410.19;;;30.78;17.82
84028;BME280;74111;45.650;25.612;2023-11-21T12:55:38;94408.89;;;31.02;17.76
84028;BME280;74111;45.650;25.612;2023-11-21T12:58:07;94417.33;;;31.08;17.32
84028;BME280;74111;45.650;25.612;2023-11-21T13:00:48;94418.31;;;31.09;16.99
84028;BME280;74111;45.650;25.612;2023-11-21T13:03:17;94421.63;;;30.68;17.46
84028;BME280;74111;45.650;25.612;2023-11-21T13:05:48;94422.92;;;30.89;18.86
84028;BME280;74111;45.650;25.612;2023-11-21T13:08:22;94417.07;;;31.18;18.95
84028;BME280;74111;45.650;25.612;2023-11-21T13:10:54;94414.05;;;31.43;18.09
84028;BME280;74111;45.650;25.612;2023-11-21T13:13:24;94416.55;;;31.43;17.94
84028;BME280;74111;45.650;25.612;2023-11-21T13:16:02;94418.61;;;31.41;17.95
84028;BME280;74111;45.650;25.612;2023-11-21T13:18:33;94418.23;;;31.11;17.13
84028;BME280;74111;45.650;25.612;2023-11-21T13:21:03;94414.08;;;30.49;17.54
84028;BME280;74111;45.650;25.612;2023-11-21T13:23:37;94410.64;;;30.11;18.01
84028;BME280;74111;45.650;25.612;2023-11-21T13:26:06;94408.04;;;29.57;17.99
84028;BME280;74111;45.650;25.612;2023-11-21T13:28:35;94406.21;;;29.39;20.09